sensor_id;sensor_type;location;lat;lon;timestamp;pressure;altitude;pressure_sealevel;temperature;humidity
6938;BME280;40040;42.706;23.372;2023-04-01T00:00:22;146727.84;;;10.36;96.35
6938;BME280;40040;42.706;23.372;2023-04-01T00:02:48;146715.53;;;10.31;96.85
6938;BME280;40040;42.706;23.372;2023-04-01T00:05:17;146695.81;;;10.23;97.62
6938;BME280;40040;42.706;23.372;2023-04-01T00:07:44;146717.97;;;10.32;97.58
6938;BME280;40040;42.706;23.372;2023-04-01T00:10:12;146717.97;;;10.32;98.19
6938;BME280;40040;42.706;23.372;2023-04-01T00:12:40;146710.59;;;10.29;98.15
6938;BME280;40040;42.706;23.372;2023-04-01T00:15:10;146720.47;;;10.33;98.73
6938;BME280;40040;42.706;23.372;2023-04-01T00:17:37;146713.06;;;10.30;99.09
6938;BME280;40040;42.706;23.372;2023-04-01T00:20:06;146682.22;;;10.17;99.83
6938;BME280;40040;42.706;23.372;2023-04-01T00:22:35;146664.97;;;10.10;99.75
6938;BME280;40040;42.706;23.372;2023-04-01T00:25:02;146673.59;;;10.14;99.01
6938;BME280;40040;42.706;23.372;2023-04-01T00:27:29;146648.91;;;10.04;99.71
6938;BME280;40040;42.706;23.372;2023-04-01T00:29:56;146625.44;;;9.94;100.00
6938;BME280;40040;42.706;23.372;2023-04-01T00:32:23;146618.06;;;9.91;99.61
6938;BME280;40040;42.706;23.372;2023-04-01T00:34:50;146597.09;;;9.83;99.93
6938;BME280;40040;42.706;23.372;2023-04-01T00:37:18;146579.84;;;9.76;100.00
6938;BME280;40040;42.706;23.372;2023-04-01T00:39:47;146584.78;;;9.78;99.65
6938;BME280;40040;42.706;23.372;2023-04-01T00:42:14;146540.38;;;9.60;100.00
6938;BME280;40040;42.706;23.372;2023-04-01T00:44:41;146551.44;;;9.64;100.00
6938;BME280;40040;42.706;23.372;2023-04-01T00:47:08;146516.94;;;9.50;100.00
6938;BME280;40040;42.706;23.372;2023-04-01T00:49:38;146489.84;;;9.39;100.00
6938;BME280;40040;42.706;23.372;2023-04-01T00:52:08;146524.38;;;9.53;100.00
6938;BME280;40040;42.706;23.372;2023-04-01T00:54:37;146460.28;;;9.27;100.00
6938;BME280;40040;42.706;23.372;2023-04-01T00:57:12;146481.22;;;9.36;100.00
6938;BME280;40040;42.706;23.372;2023-04-01T00:59:42;146378.94;;;8.94;100.00
6938;BME280;40040;42.706;23.372;2023-04-01T01:02:12;146466.41;;;9.30;100.00
6938;BME280;40040;42.706;23.372;2023-04-01T01:04:39;146446.69;;;9.22;100.00
6938;BME280;40040;42.706;23.372;2023-04-01T01:07:16;146449.16;;;9.23;100.00
6938;BME280;40040;42.706;23.372;2023-04-01T01:09:52;146493.53;;;9.41;100.00
6938;BME280;40040;42.706;23.372;2023-04-01T01:12:27;146519.44;;;9.51;100.00
6938;BME280;40040;42.706;23.372;2023-04-01T01:15:07;146524.38;;;9.53;100.00
6938;BME280;40040;42.706;23.372;2023-04-01T01:17:46;146523.13;;;9.53;100.00
6938;BME280;40040;42.706;23.372;2023-04-01T01:20:36;146417.13;;;9.09;100.00
6938;BME280;40040;42.706;23.372;2023-04-01T01:23:46;146484.91;;;9.37;100.00
6938;BME280;40040;42.706;23.372;2023-04-01T01:29:38;146508.31;;;9.47;100.00
6938;BME280;40040;42.706;23.372;2023-04-01T01:32:13;146489.84;;;9.39;100.00
6938;BME280;40040;42.706;23.372;2023-04-01T01:34:49;146473.84;;;9.33;100.00
6938;BME280;40040;42.706;23.372;2023-04-01T01:37:20;146510.78;;;9.48;100.00
6938;BME280;40040;42.706;23.372;2023-04-01T01:39:53;146502.16;;;9.44;100.00
6938;BME280;40040;42.706;23.372;2023-04-01T01:42:22;146498.47;;;9.43;100.00
6938;BME280;40040;42.706;23.372;2023-04-01T01:44:53;146495.97;;;9.42;100.00
6938;BME280;40040;42.706;23.372;2023-04-01T01:47:22;146441.75;;;9.20;100.00
6938;BME280;40040;42.706;23.372;2023-04-01T01:49:50;146533.00;;;9.57;100.00
6938;BME280;40040;42.706;23.372;2023-04-01T01:52:18;146537.94;;;9.59;100.00
6938;BME280;40040;42.706;23.372;2023-04-01T01:54:47;146537.94;;;9.59;100.00
6938;BME280;40040;42.706;23.372;2023-04-01T01:57:15;146508.31;;;9.47;100.00
6938;BME280;40040;42.706;23.372;2023-04-01T01:59:45;146499.66;;;9.43;100.00
6938;BME280;40040;42.706;23.372;2023-04-01T02:02:13;146523.13;;;9.53;100.00
6938;BME280;40040;42.706;23.372;2023-04-01T02:04:42;146536.69;;;9.58;100.00
6938;BME280;40040;42.706;23.372;2023-04-01T02:07:13;146542.81;;;9.61;100.00
6938;BME280;40040;42.706;23.372;2023-04-01T02:09:44;146550.25;;;9.64;100.00
6938;BME280;40040;42.706;23.372;2023-04-01T02:12:14;146555.19;;;9.66;100.00
6938;BME280;40040;42.706;23.372;2023-04-01T02:14:45;146537.94;;;9.59;100.00
6938;BME280;40040;42.706;23.372;2023-04-01T02:17:16;146440.53;;;9.19;100.00
6938;BME280;40040;42.706;23.372;2023-04-01T02:19:48;146520.66;;;9.52;100.00
6938;BME280;40040;42.706;23.372;2023-04-01T02:22:18;146545.31;;;9.62;100.00
6938;BME280;40040;42.706;23.372;2023-04-01T02:24:49;146540.38;;;9.60;100.00
6938;BME280;40040;42.706;23.372;2023-04-01T02:27:17;146536.69;;;9.58;100.00
6938;BME280;40040;42.706;23.372;2023-04-01T02:29:44;146542.81;;;9.61;100.00
6938;BME280;40040;42.706;23.372;2023-04-01T02:32:12;146444.22;;;9.21;100.00
6938;BME280;40040;42.706;23.372;2023-04-01T02:34:41;146552.69;;;9.65;100.00
6938;BME280;40040;42.706;23.372;2023-04-01T02:37:10;146576.16;;;9.74;99.29
6938;BME280;40040;42.706;23.372;2023-04-01T02:39:38;146576.16;;;9.74;99.37
6938;BME280;40040;42.706;23.372;2023-04-01T02:42:06;146576.16;;;9.74;98.91
6938;BME280;40040;42.706;23.372;2023-04-01T02:44:33;146541.63;;;9.60;99.17
6938;BME280;40040;42.706;23.372;2023-04-01T02:47:00;146542.81;;;9.61;100.00
6938;BME280;40040;42.706;23.372;2023-04-01T02:49:27;146542.81;;;9.61;100.00
6938;BME280;40040;42.706;23.372;2023-04-01T02:51:54;146482.47;;;9.36;100.00
6938;BME280;40040;42.706;23.372;2023-04-01T02:54:21;146486.16;;;9.38;100.00
6938;BME280;40040;42.706;23.372;2023-04-01T02:56:47;146443.00;;;9.20;100.00
6938;BME280;40040;42.706;23.372;2023-04-01T02:59:16;146402.31;;;9.03;100.00
6938;BME280;40040;42.706;23.372;2023-04-01T03:01:42;146415.88;;;9.09;100.00
6938;BME280;40040;42.706;23.372;2023-04-01T03:04:09;146419.56;;;9.10;100.00
6938;BME280;40040;42.706;23.372;2023-04-01T03:06:36;146385.06;;;8.96;100.00
6938;BME280;40040;42.706;23.372;2023-04-01T03:09:03;146362.88;;;8.87;100.00
6938;BME280;40040;42.706;23.372;2023-04-01T03:11:30;146343.19;;;8.79;100.00
6938;BME280;40040;42.706;23.372;2023-04-01T03:13:56;146291.44;;;8.58;100.00
6938;BME280;40040;42.706;23.372;2023-04-01T03:16:24;146345.63;;;8.80;100.00
6938;BME280;40040;42.706;23.372;2023-04-01T03:18:51;146362.88;;;8.87;100.00
6938;BME280;40040;42.706;23.372;2023-04-01T03:21:21;146358.00;;;8.85;100.00
6938;BME280;40040;42.706;23.372;2023-04-01T03:23:48;146335.81;;;8.76;100.00
6938;BME280;40040;42.706;23.372;2023-04-01T03:26:15;146323.50;;;8.71;100.00
6938;BME280;40040;42.706;23.372;2023-04-01T03:28:42;146334.56;;;8.76;100.00
6938;BME280;40040;42.706;23.372;2023-04-01T03:31:09;146325.94;;;8.72;100.00
6938;BME280;40040;42.706;23.372;2023-04-01T03:33:37;146334.56;;;8.76;100.00
6938;BME280;40040;42.706;23.372;2023-04-01T03:36:04;146318.56;;;8.69;100.00
6938;BME280;40040;42.706;23.372;2023-04-01T03:38:32;146394.94;;;9.00;100.00
6938;BME280;40040;42.706;23.372;2023-04-01T03:40:59;146353.06;;;8.83;100.00
6938;BME280;40040;42.706;23.372;2023-04-01T03:43:26;146401.13;;;9.03;100.00
6938;BME280;40040;42.706;23.372;2023-04-01T03:45:53;146385.06;;;8.96;100.00
6938;BME280;40040;42.706;23.372;2023-04-01T03:48:22;146434.38;;;9.17;100.00
6938;BME280;40040;42.706;23.372;2023-04-01T03:50:52;146439.31;;;9.19;100.00
6938;BME280;40040;42.706;23.372;2023-04-01T03:53:18;146359.19;;;8.86;100.00
6938;BME280;40040;42.706;23.372;2023-04-01T03:55:45;146383.88;;;8.96;100.00
6938;BME280;40040;42.706;23.372;2023-04-01T03:58:12;146439.31;;;9.19;100.00
6938;BME280;40040;42.706;23.372;2023-04-01T04:00:39;146422.06;;;9.12;100.00
6938;BME280;40040;42.706;23.372;2023-04-01T04:03:06;146404.81;;;9.04;100.00
6938;BME280;40040;42.706;23.372;2023-04-01T04:05:33;146408.50;;;9.06;100.00
6938;BME280;40040;42.706;23.372;2023-04-01T04:08:01;146419.56;;;9.10;100.00
6938;BME280;40040;42.706;23.372;2023-04-01T04:10:28;146414.63;;;9.08;100.00
6938;BME280;40040;42.706;23.372;2023-04-01T04:12:56;146406.00;;;9.05;100.00
6938;BME280;40040;42.706;23.372;2023-04-01T04:15:23;146473.84;;;9.33;100.00
6938;BME280;40040;42.706;23.372;2023-04-01T04:17:49;146476.28;;;9.34;100.00
6938;BME280;40040;42.706;23.372;2023-04-01T04:20:16;146452.84;;;9.24;100.00
6938;BME280;40040;42.706;23.372;2023-04-01T04:22:43;146441.75;;;9.20;100.00
6938;BME280;40040;42.706;23.372;2023-04-01T04:25:11;146406.00;;;9.05;100.00
6938;BME280;40040;42.706;23.372;2023-04-01T04:27:38;146409.75;;;9.06;100.00
6938;BME280;40040;42.706;23.372;2023-04-01T04:30:07;146381.38;;;8.95;100.00
6938;BME280;40040;42.706;23.372;2023-04-01T04:32:34;146370.31;;;8.90;100.00
6938;BME280;40040;42.706;23.372;2023-04-01T04:35:01;146366.63;;;8.89;100.00
6938;BME280;40040;42.706;23.372;2023-04-01T04:37:28;146345.63;;;8.80;100.00
6938;BME280;40040;42.706;23.372;2023-04-01T04:39:55;146392.50;;;8.99;100.00
6938;BME280;40040;42.706;23.372;2023-04-01T04:42:23;146397.38;;;9.01;100.00
6938;BME280;40040;42.706;23.372;2023-04-01T04:44:50;146369.06;;;8.90;100.00
6938;BME280;40040;42.706;23.372;2023-04-01T04:47:17;146369.06;;;8.90;100.00
6938;BME280;40040;42.706;23.372;2023-04-01T04:49:44;146343.19;;;8.79;100.00
6938;BME280;40040;42.706;23.372;2023-04-01T04:52:11;146319.81;;;8.70;100.00
6938;BME280;40040;42.706;23.372;2023-04-01T04:54:37;146325.94;;;8.72;100.00
6938;BME280;40040;42.706;23.372;2023-04-01T04:57:04;146343.19;;;8.79;100.00
6938;BME280;40040;42.706;23.372;2023-04-01T04:59:33;146323.50;;;8.71;100.00
6938;BME280;40040;42.706;23.372;2023-04-01T05:01:59;146378.94;;;8.94;100.00
6938;BME280;40040;42.706;23.372;2023-04-01T05:04:26;146393.69;;;9.00;100.00
6938;BME280;40040;42.706;23.372;2023-04-01T05:06:53;146434.38;;;9.17;100.00
6938;BME280;40040;42.706;23.372;2023-04-01T05:09:20;146424.50;;;9.13;100.00
6938;BME280;40040;42.706;23.372;2023-04-01T05:11:47;146438.06;;;9.18;100.00
6938;BME280;40040;42.706;23.372;2023-04-01T05:14:14;146439.31;;;9.19;100.00
6938;BME280;40040;42.706;23.372;2023-04-01T05:16:43;146461.47;;;9.28;100.00
6938;BME280;40040;42.706;23.372;2023-04-01T05:19:10;146471.34;;;9.32;100.00
6938;BME280;40040;42.706;23.372;2023-04-01T05:21:37;146487.34;;;9.38;100.00
6938;BME280;40040;42.706;23.372;2023-04-01T05:24:07;146491.03;;;9.40;100.00
6938;BME280;40040;42.706;23.372;2023-04-01T05:26:34;146491.03;;;9.40;100.00
6938;BME280;40040;42.706;23.372;2023-04-01T05:29:02;146471.34;;;9.32;100.00
6938;BME280;40040;42.706;23.372;2023-04-01T05:31:29;146479.97;;;9.35;100.00
6938;BME280;40040;42.706;23.372;2023-04-01T05:33:57;146499.66;;;9.43;100.00
6938;BME280;40040;42.706;23.372;2023-04-01T05:36:24;146505.84;;;9.46;100.00
6938;BME280;40040;42.706;23.372;2023-04-01T05:38:54;146552.69;;;9.65;100.00
6938;BME280;40040;42.706;23.372;2023-04-01T05:41:21;146552.69;;;9.65;100.00
6938;BME280;40040;42.706;23.372;2023-04-01T05:43:48;146557.63;;;9.67;100.00
6938;BME280;40040;42.706;23.372;2023-04-01T05:46:15;146577.34;;;9.75;100.00
6938;BME280;40040;42.706;23.372;2023-04-01T05:48:42;146604.47;;;9.86;100.00
6938;BME280;40040;42.706;23.372;2023-04-01T05:51:13;146615.56;;;9.90;100.00
6938;BME280;40040;42.706;23.372;2023-04-01T05:53:40;146604.47;;;9.86;100.00
6938;BME280;40040;42.706;23.372;2023-04-01T05:56:07;146683.47;;;10.18;100.00
6938;BME280;40040;42.706;23.372;2023-04-01T05:58:35;146642.72;;;10.01;94.23
6938;BME280;40040;42.706;23.372;2023-04-01T06:01:02;146773.53;;;10.55;92.90
6938;BME280;40040;42.706;23.372;2023-04-01T06:03:29;146822.88;;;10.75;91.62
6938;BME280;40040;42.706;23.372;2023-04-01T06:05:56;146872.19;;;10.95;88.83
6938;BME280;40040;42.706;23.372;2023-04-01T06:08:24;146898.13;;;11.05;88.46
6938;BME280;40040;42.706;23.372;2023-04-01T06:11:08;146940.13;;;11.22;88.30
6938;BME280;40040;42.706;23.372;2023-04-01T06:13:55;146991.97;;;11.44;86.20
6938;BME280;40040;42.706;23.372;2023-04-01T06:16:38;147031.44;;;11.60;84.05
6938;BME280;40040;42.706;23.372;2023-04-01T06:19:21;147057.44;;;11.70;82.35
6938;BME280;40040;42.706;23.372;2023-04-01T06:22:13;147105.59;;;11.90;81.93
6938;BME280;40040;42.706;23.372;2023-04-01T06:24:55;147159.94;;;12.12;80.10
6938;BME280;40040;42.706;23.372;2023-04-01T06:27:36;147204.41;;;12.30;79.79
6938;BME280;40040;42.706;23.372;2023-04-01T06:30:28;147234.06;;;12.42;77.30
6938;BME280;40040;42.706;23.372;2023-04-01T06:33:16;147276.06;;;12.59;76.97
6938;BME280;40040;42.706;23.372;2023-04-01T06:36:05;147342.81;;;12.86;75.94
6938;BME280;40040;42.706;23.372;2023-04-01T06:38:45;147394.78;;;13.07;74.98
6938;BME280;40040;42.706;23.372;2023-04-01T06:41:41;147436.81;;;13.24;73.95
6938;BME280;40040;42.706;23.372;2023-04-01T06:44:16;147444.22;;;13.27;74.61
6938;BME280;40040;42.706;23.372;2023-04-01T06:46:47;147477.59;;;13.41;73.54
6938;BME280;40040;42.706;23.372;2023-04-01T06:49:31;147496.16;;;13.48;73.71
6938;BME280;40040;42.706;23.372;2023-04-01T06:52:09;147496.16;;;13.48;73.18
6938;BME280;40040;42.706;23.372;2023-04-01T06:54:45;147514.72;;;13.56;74.13
6938;BME280;40040;42.706;23.372;2023-04-01T06:57:22;147478.84;;;13.41;74.63
6938;BME280;40040;42.706;23.372;2023-04-01T06:59:53;147511.00;;;13.54;74.95
6938;BME280;40040;42.706;23.372;2023-04-01T07:02:25;147515.91;;;13.56;74.10
6938;BME280;40040;42.706;23.372;2023-04-01T07:04:58;147541.88;;;13.67;74.97
6938;BME280;40040;42.706;23.372;2023-04-01T07:07:31;147603.75;;;13.92;75.11
6938;BME280;40040;42.706;23.372;2023-04-01T07:10:05;147623.53;;;14.00;74.04
6938;BME280;40040;42.706;23.372;2023-04-01T07:12:44;147638.38;;;14.06;75.11
6938;BME280;40040;42.706;23.372;2023-04-01T07:15:18;147659.41;;;14.15;76.00
6938;BME280;40040;42.706;23.372;2023-04-01T07:17:48;147686.69;;;14.26;74.32
6938;BME280;40040;42.706;23.372;2023-04-01T07:20:23;147650.75;;;14.11;77.16
6938;BME280;40040;42.706;23.372;2023-04-01T07:22:54;147678.00;;;14.22;79.59
6938;BME280;40040;42.706;23.372;2023-04-01T07:25:24;147682.91;;;14.24;74.04
6938;BME280;40040;42.706;23.372;2023-04-01T07:27:58;147695.34;;;14.29;69.66
6938;BME280;40040;42.706;23.372;2023-04-01T07:30:26;147710.19;;;14.35;69.58
6938;BME280;40040;42.706;23.372;2023-04-01T07:33:01;147718.84;;;14.39;68.98
6938;BME280;40040;42.706;23.372;2023-04-01T07:35:36;147738.66;;;14.47;68.80
6938;BME280;40040;42.706;23.372;2023-04-01T07:38:14;147770.81;;;14.60;68.81
6938;BME280;40040;42.706;23.372;2023-04-01T07:40:48;147788.16;;;14.67;68.56
6938;BME280;40040;42.706;23.372;2023-04-01T07:43:40;147807.94;;;14.75;67.55
6938;BME280;40040;42.706;23.372;2023-04-01T07:46:20;147810.44;;;14.76;66.13
6938;BME280;40040;42.706;23.372;2023-04-01T07:48:56;147815.38;;;14.78;66.15
6938;BME280;40040;42.706;23.372;2023-04-01T07:51:30;147867.38;;;14.99;64.21
6938;BME280;40040;42.706;23.372;2023-04-01T07:54:05;147897.09;;;15.11;63.39
6938;BME280;40040;42.706;23.372;2023-04-01T07:56:41;147915.63;;;15.19;63.37
6938;BME280;40040;42.706;23.372;2023-04-01T07:59:17;147931.75;;;15.25;63.35
6938;BME280;40040;42.706;23.372;2023-04-01T08:01:50;147939.19;;;15.28;63.60
6938;BME280;40040;42.706;23.372;2023-04-01T08:04:32;147928.00;;;15.24;63.22
6938;BME280;40040;42.706;23.372;2023-04-01T08:07:09;147946.59;;;15.31;64.11
6938;BME280;40040;42.706;23.372;2023-04-01T08:09:43;147956.50;;;15.35;63.29
6938;BME280;40040;42.706;23.372;2023-04-01T08:12:23;147920.59;;;15.21;64.22
6938;BME280;40040;42.706;23.372;2023-04-01T08:15:08;147930.50;;;15.25;64.38
6938;BME280;40040;42.706;23.372;2023-04-01T08:17:45;147946.59;;;15.31;63.53
6938;BME280;40040;42.706;23.372;2023-04-01T08:20:27;147758.44;;;14.55;63.86
6938;BME280;40040;42.706;23.372;2023-04-01T08:23:00;147890.88;;;15.09;64.01
6938;BME280;40040;42.706;23.372;2023-04-01T08:25:33;147942.88;;;15.30;64.75
6938;BME280;40040;42.706;23.372;2023-04-01T08:28:11;147894.59;;;15.10;66.85
6938;BME280;40040;42.706;23.372;2023-04-01T08:30:48;147973.91;;;15.42;66.13
6938;BME280;40040;42.706;23.372;2023-04-01T08:33:21;147971.41;;;15.41;65.34
6938;BME280;40040;42.706;23.372;2023-04-01T08:35:54;148030.88;;;15.65;64.27
6938;BME280;40040;42.706;23.372;2023-04-01T08:38:24;147996.19;;;15.51;63.24
6938;BME280;40040;42.706;23.372;2023-04-01T08:50:26;148226.59;;;16.45;57.79
6938;BME280;40040;42.706;23.372;2023-04-01T08:53:00;148307.19;;;16.77;55.93
6938;BME280;40040;42.706;23.372;2023-04-01T08:55:59;148386.56;;;17.10;54.23
6938;BME280;40040;42.706;23.372;2023-04-01T08:58:46;148483.31;;;17.49;53.67
6938;BME280;40040;42.706;23.372;2023-04-01T09:01:31;148561.44;;;17.80;52.94
6938;BME280;40040;42.706;23.372;2023-04-01T09:07:07;148660.69;;;18.21;52.34
6938;BME280;40040;42.706;23.372;2023-04-01T09:09:51;148721.56;;;18.45;50.06
6938;BME280;40040;42.706;23.372;2023-04-01T09:12:38;148721.56;;;18.45;48.64
6938;BME280;40040;42.706;23.372;2023-04-01T09:15:42;148716.59;;;18.43;48.31
6938;BME280;40040;42.706;23.372;2023-04-01T09:18:28;148742.66;;;18.54;47.34
6938;BME280;40040;42.706;23.372;2023-04-01T09:21:18;148774.94;;;18.67;47.53
6938;BME280;40040;42.706;23.372;2023-04-01T09:24:26;148804.72;;;18.79;47.14
6938;BME280;40040;42.706;23.372;2023-04-01T09:27:04;148807.19;;;18.80;46.48
6938;BME280;40040;42.706;23.372;2023-04-01T09:29:55;148777.41;;;18.68;46.46
6938;BME280;40040;42.706;23.372;2023-04-01T09:32:52;148860.59;;;19.01;46.54
6938;BME280;40040;42.706;23.372;2023-04-01T09:35:39;148866.78;;;19.04;45.55
6938;BME280;40040;42.706;23.372;2023-04-01T09:38:20;148817.13;;;18.84;45.35
6938;BME280;40040;42.706;23.372;2023-04-01T09:40:54;148799.75;;;18.77;46.13
6938;BME280;40040;42.706;23.372;2023-04-01T09:43:43;148817.13;;;18.84;45.50
6938;BME280;40040;42.706;23.372;2023-04-01T09:46:23;148799.75;;;18.77;47.11
6938;BME280;40040;42.706;23.372;2023-04-01T09:52:08;148753.84;;;18.58;48.27
6938;BME280;40040;42.706;23.372;2023-04-01T09:54:52;148721.56;;;18.45;47.55
6938;BME280;40040;42.706;23.372;2023-04-01T09:57:48;148715.38;;;18.43;48.67
6938;BME280;40040;42.706;23.372;2023-04-01T10:00:37;148710.41;;;18.41;48.58
6938;BME280;40040;42.706;23.372;2023-04-01T10:03:37;148697.94;;;18.36;49.29
6938;BME280;40040;42.706;23.372;2023-04-01T10:06:54;148654.50;;;18.18;49.88
6938;BME280;40040;42.706;23.372;2023-04-01T10:09:48;148603.59;;;17.97;50.60
6938;BME280;40040;42.706;23.372;2023-04-01T10:15:57;148588.75;;;17.91;51.85
6938;BME280;40040;42.706;23.372;2023-04-01T10:18:46;148588.75;;;17.91;51.43
6938;BME280;40040;42.706;23.372;2023-04-01T10:21:42;148546.59;;;17.74;51.28
6938;BME280;40040;42.706;23.372;2023-04-01T10:27:21;148451.03;;;17.36;50.94
6938;BME280;40040;42.706;23.372;2023-04-01T10:30:18;148385.31;;;17.09;50.69
6938;BME280;40040;42.706;23.372;2023-04-01T10:33:10;148348.13;;;16.94;51.39
6938;BME280;40040;42.706;23.372;2023-04-01T10:45:18;148333.22;;;16.88;52.58
6938;BME280;40040;42.706;23.372;2023-04-01T10:48:12;148315.88;;;16.81;52.90
6938;BME280;40040;42.706;23.372;2023-04-01T10:53:43;148248.97;;;16.54;53.40
6938;BME280;40040;42.706;23.372;2023-04-01T10:56:39;148328.25;;;16.86;53.05
6938;BME280;40040;42.706;23.372;2023-04-01T10:59:19;148306.00;;;16.77;52.14
6938;BME280;40040;42.706;23.372;2023-04-01T11:02:18;148319.59;;;16.82;51.87
6938;BME280;40040;42.706;23.372;2023-04-01T11:08:48;148320.84;;;16.83;52.49
6938;BME280;40040;42.706;23.372;2023-04-01T11:11:51;148332.03;;;16.88;52.06
6938;BME280;40040;42.706;23.372;2023-04-01T11:18:23;148365.47;;;17.01;51.58
6938;BME280;40040;42.706;23.372;2023-04-01T11:21:09;148350.59;;;16.95;51.20
6938;BME280;40040;42.706;23.372;2023-04-01T11:26:51;148340.69;;;16.91;52.04
6938;BME280;40040;42.706;23.372;2023-04-01T11:32:31;148288.63;;;16.70;51.63
6938;BME280;40040;42.706;23.372;2023-04-01T11:35:19;148270.03;;;16.62;52.67
6938;BME280;40040;42.706;23.372;2023-04-01T11:37:52;148204.28;;;16.36;53.08
6938;BME280;40040;42.706;23.372;2023-04-01T11:40:29;148240.28;;;16.50;53.92
6938;BME280;40040;42.706;23.372;2023-04-01T11:43:06;148229.06;;;16.46;57.12
6938;BME280;40040;42.706;23.372;2023-04-01T11:45:39;148147.28;;;16.13;62.51
6938;BME280;40040;42.706;23.372;2023-04-01T11:48:27;148149.78;;;16.14;63.56
6938;BME280;40040;42.706;23.372;2023-04-01T11:51:11;148028.38;;;15.64;69.73
6938;BME280;40040;42.706;23.372;2023-04-01T11:53:47;147868.59;;;15.00;82.85
6938;BME280;40040;42.706;23.372;2023-04-01T11:56:31;147726.25;;;14.42;94.41
6938;BME280;40040;42.706;23.372;2023-04-01T11:59:25;147605.00;;;13.93;100.00
6938;BME280;40040;42.706;23.372;2023-04-01T12:02:03;147498.59;;;13.49;100.00
6938;BME280;40040;42.706;23.372;2023-04-01T12:05:01;147441.75;;;13.26;100.00
6938;BME280;40040;42.706;23.372;2023-04-01T12:07:56;147418.25;;;13.17;100.00
6938;BME280;40040;42.706;23.372;2023-04-01T12:10:35;147400.94;;;13.10;100.00
6938;BME280;40040;42.706;23.372;2023-04-01T12:13:13;147372.47;;;12.98;100.00
6938;BME280;40040;42.706;23.372;2023-04-01T12:15:56;147342.81;;;12.86;100.00
6938;BME280;40040;42.706;23.372;2023-04-01T12:18:31;147319.31;;;12.77;100.00
6938;BME280;40040;42.706;23.372;2023-04-01T12:21:05;147324.28;;;12.79;100.00
6938;BME280;40040;42.706;23.372;2023-04-01T12:23:50;147321.81;;;12.78;100.00
6938;BME280;40040;42.706;23.372;2023-04-01T12:26:35;147313.16;;;12.74;100.00
6938;BME280;40040;42.706;23.372;2023-04-01T12:29:25;147362.59;;;12.94;100.00
6938;BME280;40040;42.706;23.372;2023-04-01T12:32:09;147393.53;;;13.07;100.00
6938;BME280;40040;42.706;23.372;2023-04-01T12:35:04;147384.88;;;13.03;100.00
6938;BME280;40040;42.706;23.372;2023-04-01T12:37:45;147362.59;;;12.94;100.00
6938;BME280;40040;42.706;23.372;2023-04-01T12:40:44;147308.22;;;12.72;100.00
6938;BME280;40040;42.706;23.372;2023-04-01T12:43:34;147303.25;;;12.70;100.00
6938;BME280;40040;42.706;23.372;2023-04-01T12:46:14;147279.75;;;12.61;100.00
6938;BME280;40040;42.706;23.372;2023-04-01T12:52:00;147271.13;;;12.57;100.00
6938;BME280;40040;42.706;23.372;2023-04-01T12:55:16;147281.00;;;12.61;100.00
6938;BME280;40040;42.706;23.372;2023-04-01T12:58:15;147273.63;;;12.58;100.00
6938;BME280;40040;42.706;23.372;2023-04-01T13:01:08;147282.25;;;12.62;100.00
6938;BME280;40040;42.706;23.372;2023-04-01T13:03:55;147298.31;;;12.68;100.00
6938;BME280;40040;42.706;23.372;2023-04-01T13:06:36;147268.66;;;12.56;100.00
6938;BME280;40040;42.706;23.372;2023-04-01T13:09:17;147263.72;;;12.54;100.00
6938;BME280;40040;42.706;23.372;2023-04-01T13:12:00;147263.72;;;12.54;100.00
6938;BME280;40040;42.706;23.372;2023-04-01T13:17:53;147288.41;;;12.64;100.00
6938;BME280;40040;42.706;23.372;2023-04-01T13:20:33;147310.66;;;12.73;100.00
6938;BME280;40040;42.706;23.372;2023-04-01T13:23:11;147318.06;;;12.76;100.00
6938;BME280;40040;42.706;23.372;2023-04-01T13:25:45;147287.22;;;12.64;100.00
6938;BME280;40040;42.706;23.372;2023-04-01T13:28:18;147310.66;;;12.73;100.00
6938;BME280;40040;42.706;23.372;2023-04-01T13:30:50;147303.25;;;12.70;100.00
6938;BME280;40040;42.706;23.372;2023-04-01T13:33:27;147334.16;;;12.83;100.00
6938;BME280;40040;42.706;23.372;2023-04-01T13:36:10;147345.28;;;12.87;100.00
6938;BME280;40040;42.706;23.372;2023-04-01T13:38:48;147351.47;;;12.90;100.00
6938;BME280;40040;42.706;23.372;2023-04-01T13:41:24;147372.47;;;12.98;100.00
6938;BME280;40040;42.706;23.372;2023-04-01T13:44:00;147366.28;;;12.96;100.00
6938;BME280;40040;42.706;23.372;2023-04-01T13:50:01;147355.19;;;12.91;100.00
6938;BME280;40040;42.706;23.372;2023-04-01T13:55:46;147379.88;;;13.01;100.00
6938;BME280;40040;42.706;23.372;2023-04-01T13:58:38;147404.66;;;13.11;100.00
6938;BME280;40040;42.706;23.372;2023-04-01T14:01:13;147399.69;;;13.09;100.00
6938;BME280;40040;42.706;23.372;2023-04-01T14:03:55;147394.78;;;13.07;100.00
6938;BME280;40040;42.706;23.372;2023-04-01T14:06:29;147446.72;;;13.28;100.00
6938;BME280;40040;42.706;23.372;2023-04-01T14:09:29;147491.19;;;13.46;100.00
6938;BME280;40040;42.706;23.372;2023-04-01T14:12:06;147506.06;;;13.52;100.00
6938;BME280;40040;42.706;23.372;2023-04-01T14:14:46;147483.78;;;13.43;100.00
6938;BME280;40040;42.706;23.372;2023-04-01T14:20:27;147514.72;;;13.56;100.00
6938;BME280;40040;42.706;23.372;2023-04-01T14:23:12;147522.13;;;13.59;100.00
6938;BME280;40040;42.706;23.372;2023-04-01T14:26:11;147520.88;;;13.58;100.00
6938;BME280;40040;42.706;23.372;2023-04-01T14:28:48;147555.50;;;13.73;100.00
6938;BME280;40040;42.706;23.372;2023-04-01T14:31:37;147567.88;;;13.78;100.00
6938;BME280;40040;42.706;23.372;2023-04-01T14:34:18;147504.81;;;13.52;100.00
6938;BME280;40040;42.706;23.372;2023-04-01T14:40:00;147590.13;;;13.87;100.00
6938;BME280;40040;42.706;23.372;2023-04-01T14:42:49;147600.03;;;13.91;100.00